createdAt,value
2017-11-21T00:01:09.965Z,100700.70
2017-11-21T00:03:35.781Z,100705.24
2017-11-21T00:06:01.577Z,100692.91
2017-11-21T00:08:27.389Z,100677.67
2017-11-21T00:10:53.173Z,100665.91
2017-11-21T00:13:18.964Z,100661.41
2017-11-21T00:15:44.745Z,100658.10
2017-11-21T00:18:18.464Z,100653.06
2017-11-21T00:20:45.313Z,100649.30
2017-11-21T00:23:11.089Z,100644.22
2017-11-21T00:25:36.874Z,100645.39
2017-11-21T00:28:03.063Z,100640.57
2017-11-21T00:30:35.664Z,100642.73
2017-11-21T00:33:01.665Z,100647.16
2017-11-21T00:35:27.459Z,100640.89
2017-11-21T00:37:53.240Z,100644.87
2017-11-21T00:40:19.022Z,100643.14
2017-11-21T00:42:44.846Z,100639.25
2017-11-21T00:45:10.637Z,100640.87
2017-11-21T00:47:36.428Z,100641.15
2017-11-21T00:50:02.214Z,100634.38
2017-11-21T00:52:27.998Z,100640.17
2017-11-21T00:54:53.777Z,100642.15
2017-11-21T00:57:19.558Z,100645.70
2017-11-21T00:59:45.332Z,100636.91
2017-11-21T01:02:11.107Z,100635.42
2017-11-21T01:04:36.901Z,100631.38
2017-11-21T01:07:02.682Z,100632.95
2017-11-21T01:09:28.493Z,100633.05
2017-11-21T01:11:54.264Z,100631.38
2017-11-21T01:14:20.091Z,100626.14
2017-11-21T01:16:45.869Z,100629.06
2017-11-21T01:19:11.649Z,100620.36
2017-11-21T01:21:37.432Z,100617.94
2017-11-21T01:24:03.205Z,100620.50
2017-11-21T01:26:29.026Z,100623.02
2017-11-21T01:28:54.814Z,100621.47
2017-11-21T01:31:20.640Z,100621.56
2017-11-21T01:33:46.425Z,100612.69
2017-11-21T01:36:12.209Z,100609.05
2017-11-21T01:38:37.977Z,100605.98
2017-11-21T01:41:03.752Z,100601.62
2017-11-21T01:43:29.666Z,100597.30
2017-11-21T01:45:55.436Z,100597.47
2017-11-21T01:48:21.218Z,100596.70
2017-11-21T01:50:46.992Z,100599.55
2017-11-21T01:53:12.772Z,100598.30
2017-11-21T01:55:38.590Z,100587.14
2017-11-21T01:58:04.364Z,100588.48
2017-11-21T02:00:30.197Z,100592.64
2017-11-21T02:03:02.029Z,100591.67
2017-11-21T02:05:27.809Z,100595.86
2017-11-21T02:07:53.585Z,100591.55
2017-11-21T02:10:19.358Z,100597.19
2017-11-21T02:12:45.161Z,100594.31
2017-11-21T02:15:10.941Z,100602.48
2017-11-21T02:17:36.761Z,100606.64
2017-11-21T02:20:02.577Z,100601.11
2017-11-21T02:22:28.369Z,100603.59
2017-11-21T02:24:54.181Z,100598.72
2017-11-21T02:27:19.962Z,100597.81
2017-11-21T02:29:45.749Z,100586.53
2017-11-21T02:32:11.520Z,100577.53
2017-11-21T02:34:37.302Z,100570.86
2017-11-21T02:37:03.121Z,100555.80
2017-11-21T02:39:28.899Z,100556.23
2017-11-21T02:41:54.682Z,100559.92
2017-11-21T02:44:20.468Z,100554.78
2017-11-21T02:46:46.266Z,100553.81
2017-11-21T02:49:14.561Z,100552.20
2017-11-21T02:51:40.365Z,100541.39
2017-11-21T02:54:06.149Z,100549.83
2017-11-21T02:56:31.941Z,100547.46
2017-11-21T02:58:57.720Z,100542.52
2017-11-21T03:01:23.492Z,100548.92
2017-11-21T03:03:49.269Z,100537.28
2017-11-21T03:06:15.045Z,100535.77
2017-11-21T03:08:41.607Z,100537.22
2017-11-21T03:11:07.434Z,100542.78
2017-11-21T03:13:33.204Z,100550.80
2017-11-21T03:15:58.992Z,100551.26
2017-11-21T03:18:24.772Z,100550.05
2017-11-21T03:20:56.588Z,100546.27
2017-11-21T03:23:28.460Z,100550.51
2017-11-21T03:26:00.296Z,100550.09
2017-11-21T03:28:32.134Z,100552.84
2017-11-21T03:30:57.918Z,100550.86
2017-11-21T03:33:23.704Z,100547.40
2017-11-21T03:35:49.496Z,100550.27
2017-11-21T03:38:15.294Z,100553.48
2017-11-21T03:40:41.077Z,100553.44
2017-11-21T03:43:06.858Z,100549.89
2017-11-21T03:45:32.632Z,100536.95
2017-11-21T03:47:58.410Z,100523.59
2017-11-21T03:50:24.195Z,100518.63
2017-11-21T03:52:49.973Z,100535.08
2017-11-21T03:55:15.751Z,100537.52
2017-11-21T03:57:41.529Z,100537.56
2017-11-21T04:00:07.313Z,100535.13
2017-11-21T04:02:33.121Z,100523.16
2017-11-21T04:04:58.912Z,100516.66
2017-11-21T04:07:24.758Z,100515.89
2017-11-21T04:09:50.545Z,100520.41
2017-11-21T04:12:16.330Z,100512.14
2017-11-21T04:14:42.188Z,100503.47
2017-11-21T04:17:08.777Z,100493.70
2017-11-21T04:19:34.604Z,100494.05
2017-11-21T04:22:00.386Z,100487.86
2017-11-21T04:24:26.198Z,100489.83
2017-11-21T04:26:51.981Z,100481.33
2017-11-21T04:29:17.797Z,100487.83
2017-11-21T04:31:43.871Z,100499.98
2017-11-21T04:34:09.693Z,100512.39
2017-11-21T04:36:35.529Z,100522.38
2017-11-21T04:39:01.316Z,100527.31
2017-11-21T04:41:27.106Z,100527.36
2017-11-21T04:43:52.944Z,100538.55
2017-11-21T04:46:18.746Z,100534.73
2017-11-21T04:48:44.721Z,100540.25
2017-11-21T04:51:10.507Z,100542.45
2017-11-21T04:53:36.330Z,100539.45
2017-11-21T04:56:02.114Z,100536.55
2017-11-21T04:58:27.942Z,100538.14
2017-11-21T05:00:53.765Z,100537.56
2017-11-21T05:03:19.551Z,100533.41
2017-11-21T05:05:45.566Z,100534.12
2017-11-21T05:08:11.383Z,100529.13
2017-11-21T05:10:37.244Z,100528.37
2017-11-21T05:13:03.033Z,100526.28
2017-11-21T05:15:28.925Z,100527.89
2017-11-21T05:17:54.740Z,100526.28
2017-11-21T05:20:20.564Z,100519.55
2017-11-21T05:22:46.420Z,100516.13
2017-11-21T05:25:12.217Z,100516.40
2017-11-21T05:27:38.054Z,100517.53
2017-11-21T05:30:03.866Z,100514.81
2017-11-21T05:32:35.827Z,100505.90
2017-11-21T05:35:01.663Z,100505.55
2017-11-21T05:37:27.490Z,100503.09
2017-11-21T05:39:53.293Z,100492.09
2017-11-21T05:42:19.092Z,100499.62
2017-11-21T05:44:44.896Z,100490.30
2017-11-21T05:47:10.697Z,100482.97
2017-11-21T05:49:36.521Z,100484.99
2017-11-21T05:52:02.313Z,100488.42
2017-11-21T05:54:28.108Z,100482.84
2017-11-21T05:56:53.906Z,100485.41
2017-11-21T05:59:19.727Z,100484.09
2017-11-21T06:01:45.631Z,100480.20
2017-11-21T06:04:11.430Z,100477.83
2017-11-21T06:06:37.273Z,100476.81
2017-11-21T06:09:03.086Z,100472.55
2017-11-21T06:11:28.894Z,100472.05
2017-11-21T06:13:54.689Z,100472.19
2017-11-21T06:16:20.495Z,100470.38
2017-11-21T06:18:46.377Z,100472.88
2017-11-21T06:21:12.863Z,100468.00
2017-11-21T06:23:41.371Z,100473.94
2017-11-21T06:26:07.217Z,100466.83
2017-11-21T06:28:33.019Z,100473.36
2017-11-21T06:30:58.861Z,100474.84
2017-11-21T06:33:24.700Z,100476.50
2017-11-21T06:35:50.489Z,100477.41
2017-11-21T06:38:16.265Z,100480.20
2017-11-21T06:40:42.101Z,100478.66
2017-11-21T06:43:07.889Z,100477.55
2017-11-21T06:45:33.676Z,100480.05
2017-11-21T06:47:59.609Z,100478.38
2017-11-21T06:50:25.391Z,100487.02
2017-11-21T06:52:51.172Z,100491.20
2017-11-21T06:55:16.962Z,100490.17
2017-11-21T06:57:42.773Z,100492.03
2017-11-21T07:00:08.570Z,100488.97
2017-11-21T07:02:34.357Z,100495.09
2017-11-21T07:05:00.137Z,100492.38
2017-11-21T07:07:25.925Z,100489.16
2017-11-21T07:09:51.758Z,100481.44
2017-11-21T07:12:17.535Z,100477.43
2017-11-21T07:14:43.321Z,100482.53
2017-11-21T07:17:09.110Z,100482.67
2017-11-21T07:19:34.909Z,100481.41
2017-11-21T07:22:00.701Z,100485.36
2017-11-21T07:24:26.502Z,100490.43
2017-11-21T07:26:52.291Z,100494.84
2017-11-21T07:29:18.085Z,100503.68
2017-11-21T07:31:43.902Z,100491.44
2017-11-21T07:34:09.688Z,100497.63
2017-11-21T07:36:35.469Z,100498.08
2017-11-21T07:39:01.303Z,100506.23
2017-11-21T07:41:28.440Z,100498.95
2017-11-21T07:43:54.235Z,100500.30
2017-11-21T07:46:20.011Z,100499.71
2017-11-21T07:48:45.821Z,100504.22
2017-11-21T07:51:11.602Z,100507.18
2017-11-21T07:53:37.390Z,100507.36
2017-11-21T07:56:03.169Z,100509.46
2017-11-21T07:58:28.952Z,100510.14
2017-11-21T08:00:54.733Z,100507.86
2017-11-21T08:03:20.557Z,100507.53
2017-11-21T08:05:46.341Z,100508.52
2017-11-21T08:08:12.121Z,100507.61
2017-11-21T08:10:37.910Z,100508.15
2017-11-21T08:13:05.120Z,100502.34
2017-11-21T08:15:31.133Z,100496.41
2017-11-21T08:17:56.957Z,100494.39
2017-11-21T08:20:22.742Z,100497.59
2017-11-21T08:22:48.581Z,100494.87
2017-11-21T08:25:14.383Z,100494.09
2017-11-21T08:27:40.288Z,100498.78
2017-11-21T08:30:06.079Z,100506.62
2017-11-21T08:32:31.901Z,100500.02
2017-11-21T08:34:57.738Z,100506.24
2017-11-21T08:37:23.533Z,100504.52
2017-11-21T08:39:49.347Z,100503.75
2017-11-21T08:42:15.129Z,100502.86
2017-11-21T08:44:40.923Z,100510.12
2017-11-21T08:47:06.748Z,100512.58
2017-11-21T08:49:32.529Z,100513.91
2017-11-21T08:51:58.421Z,100514.36
2017-11-21T08:54:24.207Z,100513.86
2017-11-21T08:56:50.003Z,100512.02
2017-11-21T08:59:15.833Z,100515.08
2017-11-21T09:01:41.613Z,100515.98
2017-11-21T09:04:07.449Z,100517.34
2017-11-21T09:06:33.229Z,100518.44
2017-11-21T09:08:59.022Z,100520.94
2017-11-21T09:11:24.806Z,100518.51
2017-11-21T09:13:50.589Z,100514.05
2017-11-21T09:16:16.390Z,100508.77
2017-11-21T09:18:42.186Z,100513.69
2017-11-21T09:21:07.968Z,100515.94
2017-11-21T09:23:33.754Z,100514.20
2017-11-21T09:25:59.572Z,100515.10
2017-11-21T09:28:25.354Z,100519.81
2017-11-21T09:30:51.173Z,100518.25
2017-11-21T09:33:16.961Z,100525.86
2017-11-21T09:35:42.784Z,100525.42
2017-11-21T09:38:08.573Z,100525.55
2017-11-21T09:40:34.363Z,100522.22
2017-11-21T09:43:00.151Z,100524.66
2017-11-21T09:45:25.940Z,100521.19
2017-11-21T09:47:51.739Z,100520.73
2017-11-21T09:50:19.450Z,100520.67
2017-11-21T09:52:45.240Z,100522.33
2017-11-21T09:55:11.021Z,100524.47
2017-11-21T09:57:36.801Z,100526.22
2017-11-21T10:00:02.594Z,100524.08
2017-11-21T10:02:28.433Z,100521.36
2017-11-21T10:04:54.274Z,100521.69
2017-11-21T10:07:20.096Z,100520.45
2017-11-21T10:09:45.880Z,100517.39
2017-11-21T10:12:11.673Z,100512.02
2017-11-21T10:14:37.465Z,100512.42
2017-11-21T10:17:03.274Z,100515.03
2017-11-21T10:19:29.133Z,100519.05
2017-11-21T10:21:54.933Z,100517.53
2017-11-21T10:24:20.722Z,100522.80
2017-11-21T10:26:46.531Z,100522.66
2017-11-21T10:29:12.334Z,100532.98
2017-11-21T10:31:38.123Z,100523.24
2017-11-21T10:34:03.931Z,100526.03
2017-11-21T10:36:29.732Z,100520.52
2017-11-21T10:38:55.520Z,100523.70
2017-11-21T10:41:21.349Z,100524.00
2017-11-21T10:43:47.142Z,100525.96
2017-11-21T10:46:12.930Z,100520.90
2017-11-21T10:48:38.722Z,100514.66
2017-11-21T10:51:04.534Z,100514.28
2017-11-21T10:53:30.320Z,100508.47
2017-11-21T10:55:56.122Z,100515.62
2017-11-21T10:58:21.925Z,100506.80
2017-11-21T11:00:47.747Z,100510.20
2017-11-21T11:03:13.533Z,100518.52
2017-11-21T11:05:39.355Z,100523.09
2017-11-21T11:08:05.178Z,100526.84
2017-11-21T11:10:31.031Z,100526.98
2017-11-21T11:12:56.817Z,100523.80
2017-11-21T11:15:22.656Z,100523.36
2017-11-21T11:17:48.453Z,100521.50
2017-11-21T11:20:14.245Z,100517.30
2017-11-21T11:22:40.042Z,100515.42
2017-11-21T11:25:05.869Z,100518.63
2017-11-21T11:27:31.660Z,100508.05
2017-11-21T11:29:57.448Z,100507.37
2017-11-21T11:32:23.233Z,100507.14
2017-11-21T11:34:49.017Z,100506.58
2017-11-21T11:37:14.818Z,100504.92
2017-11-21T11:39:40.609Z,100506.02
2017-11-21T11:42:06.407Z,100498.42
2017-11-21T11:44:32.193Z,100500.12
2017-11-21T11:46:57.982Z,100504.77
2017-11-21T11:49:23.788Z,100498.99
2017-11-21T11:51:49.673Z,100497.93
2017-11-21T11:54:15.458Z,100491.89
2017-11-21T11:56:41.245Z,100488.22
2017-11-21T11:59:07.087Z,100484.78
2017-11-21T12:01:32.903Z,100482.85
2017-11-21T12:03:58.705Z,100483.19
2017-11-21T12:06:24.553Z,100477.73
2017-11-21T12:08:50.359Z,100476.01
2017-11-21T12:11:16.175Z,100480.36
2017-11-21T12:13:42.028Z,100472.95
2017-11-21T12:16:07.830Z,100468.98
2017-11-21T12:18:33.706Z,100464.83
2017-11-21T12:20:59.549Z,100462.70
2017-11-21T12:23:25.385Z,100471.13
2017-11-21T12:25:51.241Z,100465.35
2017-11-21T12:28:17.054Z,100465.73
2017-11-21T12:30:42.912Z,100473.70
2017-11-21T12:33:08.713Z,100477.22
2017-11-21T12:35:34.514Z,100479.38
2017-11-21T12:38:00.308Z,100487.71
2017-11-21T12:40:26.181Z,100490.44
2017-11-21T12:42:51.988Z,100490.30
2017-11-21T12:45:17.862Z,100487.44
2017-11-21T12:47:43.714Z,100492.12
2017-11-21T12:50:09.514Z,100487.02
2017-11-21T12:52:35.301Z,100494.19
2017-11-21T12:55:01.133Z,100499.66
2017-11-21T12:57:26.956Z,100500.23
2017-11-21T12:59:52.749Z,100500.66
2017-11-21T13:02:18.586Z,100498.58
2017-11-21T13:04:44.386Z,100498.44
2017-11-21T13:07:10.186Z,100495.80
2017-11-21T13:09:36.020Z,100503.80
2017-11-21T13:12:01.861Z,100503.09
2017-11-21T13:14:27.746Z,100497.25
2017-11-21T13:16:53.570Z,100505.62
2017-11-21T13:19:19.370Z,100504.37
2017-11-21T13:21:45.198Z,100497.07
2017-11-21T13:24:11.042Z,100495.23
2017-11-21T13:26:36.840Z,100506.72
2017-11-21T13:29:02.662Z,100507.64
2017-11-21T13:31:28.482Z,100507.99
2017-11-21T13:33:54.288Z,100511.67
2017-11-21T13:36:20.087Z,100514.39
2017-11-21T13:38:45.896Z,100510.30
2017-11-21T13:41:11.719Z,100514.37
2017-11-21T13:43:37.537Z,100508.04
2017-11-21T13:46:03.347Z,100513.27
2017-11-21T13:48:29.145Z,100510.90
2017-11-21T13:50:54.985Z,100515.44
2017-11-21T13:53:20.783Z,100507.99
2017-11-21T13:55:46.604Z,100506.02
2017-11-21T13:58:12.417Z,100507.59
2017-11-21T14:00:38.241Z,100513.15
2017-11-21T14:03:04.089Z,100513.78
2017-11-21T14:05:29.897Z,100515.80
2017-11-21T14:07:55.689Z,100516.44
2017-11-21T14:10:21.498Z,100512.58
2017-11-21T14:12:47.291Z,100512.40
2017-11-21T14:15:13.115Z,100514.28
2017-11-21T14:17:38.939Z,100511.41
2017-11-21T14:20:04.738Z,100509.40
2017-11-21T14:22:30.580Z,100509.17
2017-11-21T14:24:56.370Z,100514.36
2017-11-21T14:27:22.160Z,100521.81
2017-11-21T14:29:47.996Z,100521.02
2017-11-21T14:32:16.588Z,100527.13
2017-11-21T14:34:42.389Z,100525.95
2017-11-21T14:37:08.190Z,100527.61
2017-11-21T14:39:33.989Z,100530.42
2017-11-21T14:41:59.782Z,100529.59
2017-11-21T14:44:25.565Z,100518.17
2017-11-21T14:46:51.355Z,100518.33
2017-11-21T14:49:17.202Z,100512.24
2017-11-21T14:51:43.014Z,100522.75
2017-11-21T14:54:08.856Z,100520.59
2017-11-21T14:56:34.666Z,100515.11
2017-11-21T14:59:00.449Z,100520.33
2017-11-21T15:01:26.281Z,100509.59
2017-11-21T15:03:52.072Z,100515.12
2017-11-21T15:06:17.861Z,100508.42
2017-11-21T15:08:43.641Z,100509.92
2017-11-21T15:11:09.420Z,100499.71
2017-11-21T15:13:35.215Z,100505.05
2017-11-21T15:16:00.998Z,100508.00
2017-11-21T15:18:26.809Z,100501.98
2017-11-21T15:20:52.601Z,100504.45
2017-11-21T15:23:18.420Z,100499.14
2017-11-21T15:25:44.214Z,100499.40
2017-11-21T15:28:10.009Z,100504.64
2017-11-21T15:30:35.796Z,100497.42
2017-11-21T15:33:01.585Z,100492.13
2017-11-21T15:35:27.389Z,100492.13
2017-11-21T15:37:53.177Z,100489.88
2017-11-21T15:40:19.009Z,100483.95
2017-11-21T15:42:44.797Z,100491.41
2017-11-21T15:45:10.593Z,100486.26
2017-11-21T15:47:36.383Z,100476.81
2017-11-21T15:50:02.189Z,100481.80
2017-11-21T15:52:27.983Z,100474.99
2017-11-21T15:54:53.793Z,100480.88
2017-11-21T15:57:19.605Z,100481.60
2017-11-21T15:59:45.422Z,100482.97
2017-11-21T16:02:11.253Z,100480.40
2017-11-21T16:04:37.041Z,100474.58
2017-11-21T16:07:02.825Z,100475.49
2017-11-21T16:09:28.617Z,100477.50
2017-11-21T16:11:54.413Z,100478.25
2017-11-21T16:14:20.206Z,100481.55
2017-11-21T16:16:45.986Z,100480.14
2017-11-21T16:19:11.811Z,100487.17
2017-11-21T16:21:37.613Z,100490.47
2017-11-21T16:24:03.438Z,100493.23
2017-11-21T16:26:29.217Z,100489.70
2017-11-21T16:28:55.004Z,100491.45
2017-11-21T16:31:20.801Z,100489.08
2017-11-21T16:33:46.601Z,100490.13
2017-11-21T16:36:12.397Z,100495.60
2017-11-21T16:38:38.189Z,100495.41
2017-11-21T16:41:04.022Z,100497.27
2017-11-21T16:43:29.812Z,100497.20
2017-11-21T16:45:55.602Z,100499.84
2017-11-21T16:48:21.418Z,100501.32
2017-11-21T16:50:47.209Z,100493.80
2017-11-21T16:53:13.006Z,100495.19
2017-11-21T16:55:38.807Z,100486.61
2017-11-21T16:58:04.603Z,100488.80
2017-11-21T17:00:30.429Z,100488.80
2017-11-21T17:02:56.226Z,100486.15
2017-11-21T17:05:22.054Z,100493.38
2017-11-21T17:07:47.850Z,100488.00
2017-11-21T17:10:13.644Z,100487.66
2017-11-21T17:12:39.421Z,100488.72
2017-11-21T17:15:05.210Z,100482.78
2017-11-21T17:17:31.043Z,100484.53
2017-11-21T17:19:56.832Z,100485.70
2017-11-21T17:22:22.696Z,100482.45
2017-11-21T17:24:48.497Z,100488.82
2017-11-21T17:27:14.285Z,100478.61
2017-11-21T17:29:40.661Z,100478.48
2017-11-21T17:32:06.474Z,100486.41
2017-11-21T17:34:33.657Z,100487.73
2017-11-21T17:37:01.366Z,100480.57
2017-11-21T17:39:27.185Z,100481.58
2017-11-21T17:41:52.981Z,100477.89
2017-11-21T17:44:18.809Z,100482.76
2017-11-21T17:46:46.958Z,100483.41
2017-11-21T17:49:12.925Z,100480.29
2017-11-21T17:51:38.788Z,100486.20
2017-11-21T17:54:04.584Z,100483.11
2017-11-21T17:56:30.550Z,100482.83
2017-11-21T17:58:56.706Z,100484.27
2017-11-21T18:01:25.212Z,100491.05
2017-11-21T18:03:54.167Z,100491.04
2017-11-21T18:06:22.051Z,100486.12
2017-11-21T18:08:47.860Z,100476.91
2017-11-21T18:11:13.733Z,100483.33
2017-11-21T18:13:39.521Z,100476.73
2017-11-21T18:16:05.312Z,100476.16
2017-11-21T18:18:31.135Z,100469.78
2017-11-21T18:20:56.952Z,100466.41
2017-11-21T18:23:22.742Z,100460.19
2017-11-21T18:25:48.546Z,100466.52
2017-11-21T18:28:14.369Z,100452.88
2017-11-21T18:30:40.170Z,100448.83
2017-11-21T18:33:05.998Z,100459.30
2017-11-21T18:35:31.797Z,100454.02
2017-11-21T18:37:57.602Z,100458.52
2017-11-21T18:40:24.375Z,100460.91
2017-11-21T18:42:50.226Z,100459.66
2017-11-21T18:45:17.113Z,100456.34
2017-11-21T18:47:45.316Z,100458.18
2017-11-21T18:50:18.876Z,100458.41
2017-11-21T18:52:44.709Z,100463.63
2017-11-21T18:55:10.557Z,100455.62
2017-11-21T18:57:37.378Z,100458.69
2017-11-21T19:00:03.169Z,100452.98
2017-11-21T19:02:37.673Z,100445.12
2017-11-21T19:05:05.235Z,100444.84
2017-11-21T19:07:31.238Z,100442.77
2017-11-21T19:09:57.033Z,100437.18
2017-11-21T19:12:22.838Z,100444.39
2017-11-21T19:14:48.645Z,100447.53
2017-11-21T19:17:14.492Z,100442.12
2017-11-21T19:19:40.320Z,100435.70
2017-11-21T19:22:06.157Z,100435.93
2017-11-21T19:24:31.978Z,100435.89
2017-11-21T19:26:57.766Z,100429.66
2017-11-21T19:29:23.559Z,100429.99
2017-11-21T19:31:49.430Z,100429.50
2017-11-21T19:34:15.266Z,100428.75
2017-11-21T19:36:41.066Z,100433.14
2017-11-21T19:39:06.909Z,100428.38
2017-11-21T19:41:32.703Z,100426.70
2017-11-21T19:43:58.565Z,100427.05
2017-11-21T19:46:24.357Z,100424.34
2017-11-21T19:48:50.183Z,100424.91
2017-11-21T19:51:15.978Z,100425.12
2017-11-21T19:53:41.769Z,100419.22
2017-11-21T19:56:07.606Z,100417.30
2017-11-21T19:58:33.404Z,100414.78
2017-11-21T20:00:59.225Z,100419.87
2017-11-21T20:03:25.005Z,100414.94
2017-11-21T20:05:50.797Z,100421.03
2017-11-21T20:08:16.590Z,100417.89
2017-11-21T20:10:42.443Z,100417.25
2017-11-21T20:13:08.275Z,100415.36
2017-11-21T20:15:34.063Z,100409.05
2017-11-21T20:17:59.871Z,100413.63
2017-11-21T20:20:25.661Z,100409.28
2017-11-21T20:22:51.518Z,100416.48
2017-11-21T20:25:17.326Z,100419.81
2017-11-21T20:27:43.130Z,100418.15
2017-11-21T20:30:08.927Z,100425.23
2017-11-21T20:32:34.728Z,100426.47
2017-11-21T20:35:00.532Z,100424.30
2017-11-21T20:37:26.472Z,100420.62
2017-11-21T20:39:52.280Z,100420.03
2017-11-21T20:42:18.114Z,100420.14
2017-11-21T20:44:43.895Z,100423.66
2017-11-21T20:47:09.732Z,100420.66
2017-11-21T20:49:35.552Z,100423.00
2017-11-21T20:52:01.346Z,100425.75
2017-11-21T20:54:27.163Z,100432.86
2017-11-21T20:56:52.978Z,100428.95
2017-11-21T20:59:18.788Z,100427.23
2017-11-21T21:01:44.584Z,100418.55
2017-11-21T21:04:10.414Z,100413.78
2017-11-21T21:06:36.246Z,100409.31
2017-11-21T21:09:02.090Z,100418.66
2017-11-21T21:11:27.919Z,100412.19
2017-11-21T21:13:55.029Z,100407.70
2017-11-21T21:16:20.919Z,100401.30
2017-11-21T21:18:46.718Z,100405.16
2017-11-21T21:21:12.512Z,100405.08
2017-11-21T21:23:38.335Z,100401.83
2017-11-21T21:26:04.137Z,100397.26
2017-11-21T21:28:29.931Z,100403.45
2017-11-21T21:30:55.735Z,100401.37
2017-11-21T21:33:21.630Z,100405.50
2017-11-21T21:35:47.437Z,100405.42
2017-11-21T21:38:13.298Z,100395.41
2017-11-21T21:40:39.162Z,100384.81
2017-11-21T21:43:05.856Z,100384.75
2017-11-21T21:45:31.680Z,100388.64
2017-11-21T21:47:57.470Z,100382.17
2017-11-21T21:50:23.288Z,100385.36
2017-11-21T21:52:49.070Z,100385.92
2017-11-21T21:55:15.043Z,100386.03
2017-11-21T21:57:44.534Z,100386.67
2017-11-21T22:00:10.621Z,100381.23
2017-11-21T22:02:36.597Z,100372.61
2017-11-21T22:05:02.531Z,100374.20
2017-11-21T22:07:28.437Z,100371.06
2017-11-21T22:09:57.890Z,100372.80
2017-11-21T22:12:37.976Z,100370.38
2017-11-21T22:15:04.093Z,100373.52
2017-11-21T22:17:30.376Z,100378.02
2017-11-21T22:19:56.181Z,100389.93
2017-11-21T22:22:23.047Z,100397.45
2017-11-21T22:24:48.834Z,100388.68
2017-11-21T22:27:14.623Z,100388.91
2017-11-21T22:29:40.427Z,100389.17
2017-11-21T22:32:06.265Z,100384.52
2017-11-21T22:34:32.049Z,100384.38
2017-11-21T22:36:57.836Z,100378.32
2017-11-21T22:39:24.323Z,100374.62
2017-11-21T22:41:50.157Z,100377.07
2017-11-21T22:44:15.954Z,100372.42
2017-11-21T22:46:41.775Z,100360.38
2017-11-21T22:49:07.690Z,100369.48
2017-11-21T22:51:33.482Z,100367.17
2017-11-21T22:53:59.277Z,100358.22
2017-11-21T22:56:25.061Z,100353.03
2017-11-21T22:58:50.845Z,100356.36
2017-11-21T23:01:16.640Z,100362.34
2017-11-21T23:03:42.432Z,100364.34
2017-11-21T23:06:08.214Z,100364.00
2017-11-21T23:08:34.049Z,100359.88
2017-11-21T23:10:59.830Z,100357.08
2017-11-21T23:13:25.630Z,100360.33
2017-11-21T23:15:51.405Z,100346.91
2017-11-21T23:18:17.221Z,100343.33
2017-11-21T23:20:43.002Z,100339.70
2017-11-21T23:23:08.781Z,100341.39
2017-11-21T23:25:34.578Z,100342.52
2017-11-21T23:28:00.372Z,100337.42
2017-11-21T23:30:26.183Z,100328.53
2017-11-21T23:32:51.965Z,100337.80
2017-11-21T23:35:17.793Z,100336.30
2017-11-21T23:37:43.606Z,100325.49
2017-11-21T23:40:09.394Z,100319.02
2017-11-21T23:42:35.191Z,100329.63
2017-11-21T23:45:01.004Z,100327.97
2017-11-21T23:47:26.794Z,100325.59
2017-11-21T23:49:52.620Z,100329.12
2017-11-21T23:52:18.402Z,100326.05
2017-11-21T23:54:44.190Z,100318.98
2017-11-21T23:57:09.978Z,100310.36
2017-11-21T23:59:35.781Z,100306.95
